Time;durP1;ratioP1;P1;durP2;ratioP2;P2;SDS_P1;SDS_P2;PMS_P1;PMS_P2;Temp;Humidity;BMP_temperature;BMP_pressure;BME280_temperature;BME280_humidity;BME280_pressure;Samples;Min_cycle;Max_cycle;Signal;HPM_P1;HPM_P2
2023/12/27 00:01:30;;;;;;;7.88;2.10;;;2.70;99.90;;;;;;5046051;28;20124;-82
2023/12/27 00:03:55;;;;;;;5.90;2.25;;;2.70;99.90;;;;;;5052337;28;20040;-81
2023/12/27 00:06:21;;;;;;;9.30;2.13;;;3.20;99.90;;;;;;5052537;28;20075;-81
2023/12/27 00:08:47;;;;;;;9.55;2.45;;;2.60;99.90;;;;;;5052231;28;20522;-81
2023/12/27 00:11:19;;;;;;;7.38;2.30;;;2.60;99.90;;;;;;5049276;28;20473;-81
2023/12/27 00:13:45;;;;;;;10.10;2.17;;;2.60;99.90;;;;;;5048977;28;20109;-82
2023/12/27 00:16:10;;;;;;;11.13;2.40;;;2.50;99.90;;;;;;5036062;28;20544;-82
2023/12/27 00:18:36;;;;;;;7.15;2.05;;;2.50;99.90;;;;;;5053263;28;20404;-82
2023/12/27 00:21:02;;;;;;;8.30;2.70;;;2.50;99.90;;;;;;5053548;28;20051;-81
2023/12/27 00:23:28;;;;;;;10.63;2.30;;;2.50;99.90;;;;;;5046476;28;20029;-80
2023/12/27 00:25:54;;;;;;;13.13;2.90;;;2.40;99.90;;;;;;5045385;28;20049;-81
2023/12/27 00:28:20;;;;;;;9.13;2.70;;;2.40;99.90;;;;;;5044669;28;20463;-80
2023/12/27 00:30:48;;;;;;;7.15;2.30;;;2.40;99.90;;;;;;5048447;28;20037;-81
2023/12/27 00:33:15;;;;;;;10.02;2.53;;;2.40;99.90;;;;;;5052361;28;20056;-82
2023/12/27 00:35:41;;;;;;;9.45;2.22;;;3.50;99.90;;;;;;5048327;28;20043;-82
2023/12/27 00:38:07;;;;;;;10.70;2.50;;;2.30;99.90;;;;;;5049219;28;20424;-81
2023/12/27 00:40:32;;;;;;;5.05;2.20;;;2.30;99.90;;;;;;5049708;28;20056;-82
2023/12/27 00:42:58;;;;;;;8.57;2.53;;;2.30;99.90;;;;;;5045267;28;20045;-81
2023/12/27 00:45:24;;;;;;;8.35;2.50;;;2.20;99.90;;;;;;5052638;28;20033;-82
2023/12/27 00:47:49;;;;;;;5.25;2.28;;;2.20;99.90;;;;;;5049771;28;20036;-82
2023/12/27 00:50:15;;;;;;;7.35;2.05;;;2.20;99.90;;;;;;5044182;28;20048;-81
2023/12/27 00:52:41;;;;;;;5.60;2.20;;;2.20;99.90;;;;;;5052081;28;20044;-82
2023/12/27 00:55:06;;;;;;;8.55;2.25;;;2.20;99.90;;;;;;5049217;28;20041;-81
2023/12/27 00:57:32;;;;;;;8.48;2.33;;;2.20;99.90;;;;;;5050093;28;20025;-82
2023/12/27 00:59:58;;;;;;;9.40;2.05;;;2.20;99.90;;;;;;5050898;28;20048;-82
2023/12/27 01:02:23;;;;;;;8.43;2.50;;;2.20;99.90;;;;;;5047684;28;20044;-82
2023/12/27 01:04:49;;;;;;;10.02;2.10;;;2.10;99.90;;;;;;5050940;28;20515;-82
2023/12/27 01:07:14;;;;;;;7.93;2.15;;;3.10;99.90;;;;;;5053013;28;20037;-82
2023/12/27 01:09:40;;;;;;;8.88;2.67;;;2.10;99.90;;;;;;5051136;28;20106;-81
2023/12/27 01:12:06;;;;;;;9.30;2.00;;;2.10;99.90;;;;;;5051734;28;20098;-82
2023/12/27 01:14:31;;;;;;;7.18;1.98;;;2.70;99.90;;;;;;5050947;28;20503;-82
2023/12/27 01:16:57;;;;;;;10.90;2.20;;;2.10;99.90;;;;;;5048820;28;20056;-82
2023/12/27 01:19:22;;;;;;;7.82;2.10;;;2.10;99.90;;;;;;5049024;28;20179;-81
2023/12/27 01:21:48;;;;;;;9.00;2.15;;;2.10;99.90;;;;;;5051202;28;20041;-82
2023/12/27 01:24:14;;;;;;;7.28;2.08;;;2.00;99.90;;;;;;5051540;28;20033;-82
2023/12/27 01:26:39;;;;;;;8.00;2.00;;;2.00;99.90;;;;;;5050515;28;20043;-82
2023/12/27 01:29:05;;;;;;;8.38;1.95;;;2.00;99.90;;;;;;5051287;28;20507;-83
2023/12/27 01:31:31;;;;;;;11.55;2.45;;;2.00;99.90;;;;;;5048573;28;20382;-82
2023/12/27 01:33:56;;;;;;;7.03;2.10;;;2.00;99.90;;;;;;5051406;28;20083;-82
2023/12/27 01:36:22;;;;;;;8.55;2.22;;;2.00;99.90;;;;;;5048398;28;20076;-82
2023/12/27 01:38:48;;;;;;;6.15;1.88;;;2.00;99.90;;;;;;5050364;28;20033;-82
2023/12/27 01:41:14;;;;;;;7.43;2.35;;;2.00;99.90;;;;;;5048576;28;20114;-82
2023/12/27 01:43:40;;;;;;;7.47;1.98;;;1.80;99.90;;;;;;5048919;28;20037;-82
2023/12/27 01:46:06;;;;;;;7.70;1.95;;;1.90;99.90;;;;;;5052123;28;20102;-82
2023/12/27 01:48:32;;;;;;;6.47;2.10;;;1.90;99.90;;;;;;5051939;28;20392;-82
2023/12/27 01:51:00;;;;;;;5.65;1.77;;;1.90;99.90;;;;;;5044982;28;20099;-82
2023/12/27 01:53:25;;;;;;;6.72;2.10;;;1.90;99.90;;;;;;5050826;28;20531;-82
2023/12/27 01:55:52;;;;;;;8.55;1.90;;;1.80;99.90;;;;;;5051677;28;20057;-81
2023/12/27 01:58:18;;;;;;;7.32;2.10;;;1.80;99.90;;;;;;5044002;28;20068;-82
2023/12/27 02:00:47;;;;;;;9.90;2.17;;;1.80;99.90;;;;;;5046111;28;20539;-81
2023/12/27 02:03:13;;;;;;;5.00;1.70;;;1.80;99.90;;;;;;5049038;28;20090;-82
2023/12/27 02:05:40;;;;;;;5.32;2.15;;;2.60;99.90;;;;;;5050001;28;20140;-81
2023/12/27 02:08:08;;;;;;;7.22;2.20;;;1.70;99.90;;;;;;5051464;28;20457;-81
2023/12/27 02:10:34;;;;;;;7.05;1.88;;;1.70;99.90;;;;;;5048319;28;20068;-81
2023/12/27 02:13:06;;;;;;;8.90;2.42;;;1.70;99.90;;;;;;5042520;28;20048;-81
2023/12/27 02:15:32;;;;;;;13.18;2.63;;;1.70;99.90;;;;;;5049828;28;20037;-81
2023/12/27 02:18:01;;;;;;;8.60;2.08;;;1.60;99.90;;;;;;5051635;28;20760;-82
2023/12/27 02:20:27;;;;;;;8.82;1.98;;;1.60;99.90;;;;;;5048624;28;20048;-82
2023/12/27 02:22:55;;;;;;;9.13;1.73;;;1.60;99.90;;;;;;5050764;28;20396;-82
2023/12/27 02:25:21;;;;;;;7.82;2.25;;;1.60;99.90;;;;;;5050249;28;20069;-82
2023/12/27 02:27:47;;;;;;;6.28;1.85;;;2.40;99.90;;;;;;5051855;28;20044;-82
2023/12/27 02:30:20;;;;;;;8.43;2.28;;;1.60;99.90;;;;;;5050805;28;20041;-82
2023/12/27 02:32:47;;;;;;;8.43;2.13;;;1.60;99.90;;;;;;5051328;28;20045;-81
2023/12/27 02:35:13;;;;;;;7.65;2.03;;;1.60;99.90;;;;;;5049836;28;20186;-82
2023/12/27 02:37:39;;;;;;;8.23;2.00;;;1.60;99.90;;;;;;5051017;28;20064;-81
2023/12/27 02:40:05;;;;;;;8.57;2.17;;;1.60;99.90;;;;;;5050907;28;20101;-82
2023/12/27 02:42:30;;;;;;;8.98;2.20;;;1.60;99.90;;;;;;5050131;28;20485;-81
2023/12/27 02:44:56;;;;;;;6.72;2.00;;;1.60;99.90;;;;;;5046443;28;20041;-82
2023/12/27 02:47:22;;;;;;;7.68;2.00;;;1.60;99.90;;;;;;5046682;28;20479;-82
2023/12/27 02:49:47;;;;;;;8.57;2.08;;;1.60;99.90;;;;;;5050202;28;20045;-82
2023/12/27 02:52:13;;;;;;;10.38;1.90;;;1.50;99.90;;;;;;5044695;28;20044;-82
2023/12/27 02:54:38;;;;;;;10.07;2.47;;;1.50;99.90;;;;;;5048830;28;20415;-82
2023/12/27 02:57:04;;;;;;;8.85;2.40;;;1.50;99.90;;;;;;5051315;28;20037;-80
2023/12/27 02:59:30;;;;;;;6.80;2.15;;;1.50;99.90;;;;;;5044681;28;20493;-81
2023/12/27 03:01:55;;;;;;;13.57;2.20;;;1.50;99.90;;;;;;5050142;28;20047;-81
2023/12/27 03:04:21;;;;;;;7.55;2.08;;;1.60;99.90;;;;;;5045149;28;20044;-81
2023/12/27 03:06:47;;;;;;;7.47;2.00;;;1.50;99.90;;;;;;5046955;28;20044;-81
2023/12/27 03:09:13;;;;;;;8.98;2.22;;;1.60;99.90;;;;;;5050153;28;20048;-81
2023/12/27 03:11:38;;;;;;;6.65;2.47;;;1.50;99.90;;;;;;5047990;28;20075;-80
2023/12/27 03:14:04;;;;;;;7.95;2.10;;;1.60;99.90;;;;;;5032993;28;20048;-81
2023/12/27 03:16:30;;;;;;;6.13;2.05;;;1.60;99.90;;;;;;5049188;28;20385;-81
2023/12/27 03:18:56;;;;;;;5.03;1.63;;;1.50;99.90;;;;;;5083062;28;20036;-82
2023/12/27 03:21:22;;;;;;;6.30;1.88;;;1.50;99.90;;;;;;5049525;28;20056;-82
2023/12/27 03:23:48;;;;;;;5.45;1.95;;;1.70;99.90;;;;;;5049496;28;20041;-81
2023/12/27 03:26:14;;;;;;;7.30;2.00;;;1.50;99.90;;;;;;5044498;28;20123;-82
2023/12/27 03:28:39;;;;;;;7.40;2.10;;;1.50;99.90;;;;;;5050789;28;20500;-82
2023/12/27 03:31:06;;;;;;;9.25;2.60;;;1.50;99.90;;;;;;5054487;28;20045;-82
2023/12/27 03:33:32;;;;;;;8.50;2.22;;;1.40;99.90;;;;;;5054682;28;20041;-81
2023/12/27 03:35:57;;;;;;;9.23;2.40;;;2.50;99.90;;;;;;5048903;28;20154;-81
2023/12/27 03:38:23;;;;;;;9.80;2.70;;;1.40;99.90;;;;;;5053275;28;20116;-81
2023/12/27 03:40:49;;;;;;;6.38;2.20;;;1.40;99.90;;;;;;5054017;28;20048;-81
2023/12/27 03:43:15;;;;;;;8.52;2.70;;;1.40;99.90;;;;;;5052903;28;20040;-81
2023/12/27 03:45:41;;;;;;;4.18;2.38;;;1.40;99.90;;;;;;5052662;28;20033;-81
2023/12/27 03:48:06;;;;;;;13.40;2.60;;;1.40;99.90;;;;;;5052791;28;20044;-82
2023/12/27 03:50:32;;;;;;;12.15;2.95;;;1.40;99.90;;;;;;5054309;28;20046;-81
2023/12/27 03:52:58;;;;;;;8.18;2.22;;;1.80;99.90;;;;;;5050687;28;20060;-81
2023/12/27 03:55:25;;;;;;;5.53;2.40;;;1.40;99.90;;;;;;5050216;28;20500;-81
2023/12/27 03:57:51;;;;;;;6.68;2.90;;;1.40;99.90;;;;;;5052987;28;20043;-81
2023/12/27 04:00:17;;;;;;;8.90;2.58;;;1.40;99.90;;;;;;5051600;28;20045;-81
2023/12/27 04:02:42;;;;;;;9.23;2.80;;;1.40;99.90;;;;;;5052686;28;20037;-81
2023/12/27 04:05:08;;;;;;;10.00;2.53;;;1.30;99.90;;;;;;5051769;28;20065;-81
2023/12/27 04:07:34;;;;;;;9.63;2.45;;;1.40;99.90;;;;;;5052308;28;20041;-81
2023/12/27 04:10:00;;;;;;;9.82;3.05;;;1.40;99.90;;;;;;5048537;28;20580;-81
2023/12/27 04:12:26;;;;;;;6.93;2.63;;;1.30;99.90;;;;;;5084988;28;20045;-81
2023/12/27 04:14:52;;;;;;;5.78;2.70;;;1.30;99.90;;;;;;5053197;28;20041;-81
2023/12/27 04:17:18;;;;;;;5.88;2.85;;;1.40;99.90;;;;;;5052962;28;20044;-80
2023/12/27 04:19:43;;;;;;;9.82;3.20;;;1.40;99.90;;;;;;5047941;28;20120;-81
2023/12/27 04:22:09;;;;;;;8.63;2.55;;;1.40;99.90;;;;;;5053226;28;20033;-81
2023/12/27 04:24:35;;;;;;;14.68;3.10;;;1.40;99.90;;;;;;5052615;28;20425;-82
2023/12/27 04:27:01;;;;;;;9.82;2.78;;;2.00;99.90;;;;;;5052074;28;20040;-80
2023/12/27 04:29:27;;;;;;;6.97;2.92;;;1.40;99.90;;;;;;5050548;28;20037;-81
2023/12/27 04:31:52;;;;;;;8.15;3.08;;;1.40;99.90;;;;;;5040835;28;20044;-81
2023/12/27 04:34:18;;;;;;;11.20;2.90;;;1.20;99.90;;;;;;5049034;28;20090;-81
2023/12/27 04:36:44;;;;;;;9.90;2.88;;;1.40;99.90;;;;;;5052879;28;20507;-81
2023/12/27 04:39:10;;;;;;;11.50;3.22;;;1.50;99.90;;;;;;5052601;28;20033;-81
2023/12/27 04:41:35;;;;;;;6.05;2.80;;;1.50;99.90;;;;;;5046248;28;20084;-82
2023/12/27 04:44:01;;;;;;;6.63;2.15;;;1.50;99.90;;;;;;5051564;28;20049;-81
2023/12/27 04:46:27;;;;;;;11.30;3.13;;;1.50;99.90;;;;;;5085684;28;20041;-81
2023/12/27 04:48:52;;;;;;;9.07;2.65;;;1.50;99.90;;;;;;5051710;28;20040;-81
2023/12/27 04:51:18;;;;;;;13.63;3.28;;;1.50;99.90;;;;;;5046782;28;20041;-81
2023/12/27 04:53:44;;;;;;;7.13;2.92;;;1.50;99.90;;;;;;5048508;28;20045;-81
2023/12/27 04:56:09;;;;;;;10.77;3.08;;;1.50;99.90;;;;;;5053427;28;20408;-81
2023/12/27 04:58:36;;;;;;;7.65;2.97;;;1.50;99.90;;;;;;5081455;28;20049;-81
2023/12/27 05:01:08;;;;;;;7.25;3.10;;;1.50;99.90;;;;;;5049439;28;20041;-82
2023/12/27 05:03:35;;;;;;;8.93;3.80;;;1.40;99.90;;;;;;5050807;28;20075;-82
2023/12/27 05:06:10;;;;;;;9.43;3.80;;;1.50;99.90;;;;;;5053429;28;20400;-81
2023/12/27 05:08:38;;;;;;;13.85;4.22;;;1.50;99.90;;;;;;5045271;28;20052;-82
2023/12/27 05:11:14;;;;;;;13.15;3.75;;;1.40;99.90;;;;;;5051790;28;20053;-81
2023/12/27 05:13:40;;;;;;;10.40;3.35;;;1.50;99.90;;;;;;5051589;28;20036;-82
2023/12/27 05:16:13;;;;;;;9.45;3.72;;;1.50;99.90;;;;;;5053287;28;20436;-82
2023/12/27 05:18:39;;;;;;;8.57;4.20;;;1.50;99.90;;;;;;5040433;28;20115;-81
2023/12/27 05:21:06;;;;;;;13.80;4.63;;;1.50;99.90;;;;;;5046084;28;20657;-81
2023/12/27 05:23:32;;;;;;;12.95;4.40;;;1.60;99.90;;;;;;5051359;28;20428;-81
2023/12/27 05:25:58;;;;;;;15.60;4.28;;;1.60;99.90;;;;;;5051610;28;20033;-81
2023/12/27 05:28:24;;;;;;;15.60;4.43;;;1.60;99.90;;;;;;5050817;28;20037;-81
2023/12/27 05:30:49;;;;;;;13.13;4.90;;;1.70;99.90;;;;;;5044074;28;20032;-82
2023/12/27 05:33:15;;;;;;;13.30;4.70;;;1.70;99.90;;;;;;5049223;28;20124;-81
2023/12/27 05:35:41;;;;;;;10.27;4.40;;;1.70;99.90;;;;;;5049389;28;20033;-82
2023/12/27 05:38:06;;;;;;;11.07;4.20;;;1.80;99.90;;;;;;5049857;28;20124;-81
2023/12/27 05:40:32;;;;;;;10.93;4.53;;;1.80;99.90;;;;;;5047929;28;20106;-82
2023/12/27 05:42:58;;;;;;;13.60;4.80;;;1.80;99.90;;;;;;5076408;28;20044;-82
2023/12/27 05:45:23;;;;;;;12.70;4.78;;;1.80;99.90;;;;;;5084527;28;20044;-81
2023/12/27 05:47:49;;;;;;;9.93;4.05;;;1.80;99.90;;;;;;5049144;28;20041;-82
2023/12/27 05:50:15;;;;;;;11.30;4.53;;;1.80;99.90;;;;;;5045247;28;20524;-81
2023/12/27 05:52:41;;;;;;;10.68;4.45;;;1.80;99.90;;;;;;5047663;28;20044;-82
2023/12/27 05:55:07;;;;;;;8.65;4.47;;;1.80;99.90;;;;;;5052446;28;20029;-82
2023/12/27 05:57:33;;;;;;;11.52;4.50;;;1.80;99.90;;;;;;5050893;28;20189;-82
2023/12/27 05:59:59;;;;;;;11.00;4.18;;;3.20;99.90;;;;;;5049716;28;20178;-82
2023/12/27 06:02:24;;;;;;;12.77;4.22;;;1.80;99.90;;;;;;5048485;28;20130;-82
2023/12/27 06:04:50;;;;;;;11.07;4.10;;;1.90;99.90;;;;;;5049673;28;20041;-82
2023/12/27 06:07:15;;;;;;;11.52;3.90;;;1.90;99.90;;;;;;5050140;28;20115;-82
2023/12/27 06:09:41;;;;;;;12.10;4.00;;;1.90;99.90;;;;;;5034789;28;20501;-82
2023/12/27 06:12:10;;;;;;;13.63;3.83;;;1.90;99.90;;;;;;5040853;28;20056;-81
2023/12/27 06:14:35;;;;;;;10.75;4.00;;;1.90;99.90;;;;;;5050123;28;20449;-82
2023/12/27 06:17:01;;;;;;;9.50;3.45;;;1.90;99.90;;;;;;5048511;28;20068;-82
2023/12/27 06:19:36;;;;;;;11.05;4.15;;;1.90;99.90;;;;;;5049036;28;20044;-82
2023/12/27 06:22:02;;;;;;;9.35;3.88;;;2.00;99.90;;;;;;5048923;28;20041;-82
2023/12/27 06:24:28;;;;;;;9.27;3.38;;;2.00;99.90;;;;;;5050368;28;20408;-82
2023/12/27 06:26:54;;;;;;;15.27;3.72;;;2.00;99.90;;;;;;5084287;28;20059;-82
2023/12/27 06:29:19;;;;;;;12.63;5.03;;;2.00;99.90;;;;;;5051864;28;20667;-82
2023/12/27 06:31:45;;;;;;;7.68;3.35;;;2.10;99.90;;;;;;5050412;28;20063;-82
2023/12/27 06:34:10;;;;;;;10.48;3.88;;;2.10;99.90;;;;;;5047777;28;20064;-82
2023/12/27 06:36:36;;;;;;;7.53;3.50;;;2.10;99.90;;;;;;5050168;28;20047;-82
2023/12/27 06:39:06;;;;;;;12.98;3.95;;;2.10;99.90;;;;;;5048238;28;20041;-81
2023/12/27 06:41:32;;;;;;;11.73;3.58;;;2.20;99.90;;;;;;5047457;28;20051;-81
2023/12/27 06:43:57;;;;;;;9.10;3.55;;;2.20;99.90;;;;;;5049560;28;20408;-81
2023/12/27 06:46:23;;;;;;;12.80;3.95;;;2.20;99.90;;;;;;5048974;28;20045;-82
2023/12/27 06:48:48;;;;;;;14.70;3.67;;;2.20;99.90;;;;;;5049909;28;20085;-82
2023/12/27 06:51:14;;;;;;;10.32;3.40;;;2.30;99.90;;;;;;5051290;28;20102;-82
2023/12/27 06:53:40;;;;;;;8.88;3.20;;;2.30;99.90;;;;;;5047998;28;20037;-82
2023/12/27 06:56:05;;;;;;;12.30;3.25;;;2.30;99.90;;;;;;5048175;28;20497;-82
2023/12/27 06:58:31;;;;;;;10.60;3.67;;;2.30;99.90;;;;;;5045640;28;20049;-82
2023/12/27 07:00:57;;;;;;;12.00;3.88;;;2.30;99.90;;;;;;5049742;28;20041;-82
2023/12/27 07:03:24;;;;;;;9.32;3.65;;;2.30;99.90;;;;;;5048707;28;20051;-82
2023/12/27 07:05:50;;;;;;;9.45;4.07;;;2.40;99.90;;;;;;5051036;28;20388;-82
2023/12/27 07:08:15;;;;;;;9.55;3.72;;;2.40;99.90;;;;;;5049737;28;20048;-82
2023/12/27 07:10:41;;;;;;;9.23;3.58;;;2.40;99.90;;;;;;5049401;28;20052;-82
2023/12/27 07:13:08;;;;;;;9.25;3.17;;;2.40;99.90;;;;;;5051144;28;20040;-82
2023/12/27 07:15:34;;;;;;;8.85;4.10;;;2.40;99.90;;;;;;5049500;28;20112;-82
2023/12/27 07:18:00;;;;;;;8.52;2.70;;;2.40;99.90;;;;;;5049877;28;20036;-82
2023/12/27 07:20:26;;;;;;;13.02;3.05;;;2.40;99.90;;;;;;5049295;28;20420;-82
2023/12/27 07:22:51;;;;;;;13.70;2.90;;;2.40;99.90;;;;;;5050390;28;20071;-82
2023/12/27 07:25:17;;;;;;;8.75;2.72;;;2.50;99.90;;;;;;5050896;28;20037;-82
2023/12/27 07:27:43;;;;;;;10.45;2.70;;;2.50;99.90;;;;;;5049806;28;20047;-82
2023/12/27 07:30:09;;;;;;;12.00;2.40;;;2.50;99.90;;;;;;5049997;28;20051;-82
2023/12/27 07:32:34;;;;;;;8.45;2.33;;;2.50;99.90;;;;;;5049399;28;20113;-82
2023/12/27 07:35:00;;;;;;;9.73;2.40;;;2.60;99.90;;;;;;5049542;28;20459;-82
2023/12/27 07:37:26;;;;;;;8.38;2.13;;;2.60;99.90;;;;;;5050601;28;20120;-82
2023/12/27 07:39:53;;;;;;;8.98;1.75;;;3.20;99.90;;;;;;5050809;28;20443;-82
2023/12/27 07:42:19;;;;;;;8.77;2.50;;;2.60;99.90;;;;;;5050477;28;20040;-82
2023/12/27 07:44:45;;;;;;;5.22;2.13;;;2.70;99.90;;;;;;5050358;28;20037;-82
2023/12/27 07:47:11;;;;;;;11.00;2.28;;;2.60;99.90;;;;;;5050783;28;20036;-82
2023/12/27 07:49:36;;;;;;;10.77;2.00;;;2.70;99.90;;;;;;5050652;28;20040;-82
2023/12/27 07:52:02;;;;;;;15.18;2.13;;;3.60;99.90;;;;;;5049298;28;20124;-82
2023/12/27 07:54:28;;;;;;;9.48;2.15;;;2.80;99.90;;;;;;5049298;28;20405;-82
2023/12/27 07:56:54;;;;;;;7.30;1.77;;;2.80;99.90;;;;;;5049403;28;20064;-82
2023/12/27 07:59:19;;;;;;;6.13;2.10;;;2.80;99.90;;;;;;5048458;28;20028;-81
2023/12/27 08:01:45;;;;;;;5.35;1.90;;;2.80;99.90;;;;;;5049391;28;20052;-82
2023/12/27 08:04:11;;;;;;;10.55;2.40;;;2.80;99.90;;;;;;5048999;28;20044;-82
2023/12/27 08:06:37;;;;;;;10.18;2.47;;;2.80;99.90;;;;;;5049261;28;20045;-82
2023/12/27 08:09:03;;;;;;;11.93;2.78;;;2.90;99.90;;;;;;5050410;28;20524;-82
2023/12/27 08:11:29;;;;;;;8.95;2.80;;;2.90;99.90;;;;;;5049105;28;20072;-82
2023/12/27 08:13:55;;;;;;;10.65;2.78;;;2.90;99.90;;;;;;5051076;28;20037;-82
2023/12/27 08:16:21;;;;;;;5.00;2.13;;;2.90;99.90;;;;;;5054369;28;20064;-82
2023/12/27 08:18:47;;;;;;;7.78;2.70;;;3.00;99.90;;;;;;5048429;28;20041;-82
2023/12/27 08:21:13;;;;;;;8.75;3.00;;;3.00;99.90;;;;;;5053087;28;20512;-81
2023/12/27 08:23:39;;;;;;;11.02;4.00;;;3.00;99.90;;;;;;5052798;28;20041;-82
2023/12/27 08:26:06;;;;;;;13.23;3.20;;;3.00;99.90;;;;;;5053011;28;20044;-81
2023/12/27 08:28:35;;;;;;;9.57;3.83;;;3.10;99.90;;;;;;5052918;28;20505;-81
2023/12/27 08:31:04;;;;;;;5.68;3.42;;;3.00;99.90;;;;;;5047136;28;20076;-82
2023/12/27 08:33:30;;;;;;;7.75;3.22;;;4.00;99.90;;;;;;5052380;28;20047;-81
2023/12/27 08:35:57;;;;;;;8.50;3.40;;;3.10;99.90;;;;;;5052263;28;20041;-82
2023/12/27 08:38:25;;;;;;;11.52;3.75;;;3.10;99.90;;;;;;5052377;28;20064;-82
2023/12/27 08:40:50;;;;;;;12.30;3.85;;;3.20;99.90;;;;;;5086078;28;20090;-81
2023/12/27 08:43:20;;;;;;;14.57;3.67;;;4.00;99.90;;;;;;5085880;28;20083;-81
2023/12/27 08:45:49;;;;;;;12.27;3.70;;;4.10;99.90;;;;;;5052090;28;20040;-82
2023/12/27 08:48:14;;;;;;;11.05;3.95;;;3.20;99.90;;;;;;5052139;28;20496;-80
2023/12/27 08:50:41;;;;;;;12.30;4.15;;;3.30;99.90;;;;;;5053156;28;20045;-82
2023/12/27 08:53:07;;;;;;;11.57;4.57;;;3.10;99.90;;;;;;5053438;28;20445;-81
2023/12/27 08:55:34;;;;;;;9.88;3.90;;;3.30;99.90;;;;;;5054306;28;20148;-82
2023/12/27 08:57:59;;;;;;;10.73;3.90;;;3.30;99.90;;;;;;5051338;28;20044;-82
2023/12/27 09:00:26;;;;;;;9.02;4.15;;;3.40;99.90;;;;;;5076559;28;20049;-82
2023/12/27 09:02:51;;;;;;;12.85;5.00;;;3.40;99.90;;;;;;5051746;28;20112;-82
2023/12/27 09:05:17;;;;;;;11.07;4.95;;;3.40;99.90;;;;;;5053653;28;20171;-82
2023/12/27 09:07:43;;;;;;;12.57;5.75;;;3.40;99.90;;;;;;5052100;28;20036;-81
2023/12/27 09:10:10;;;;;;;18.05;5.68;;;3.40;99.90;;;;;;5051843;28;20095;-81
2023/12/27 09:12:38;;;;;;;15.25;5.55;;;3.40;99.90;;;;;;5051775;28;20116;-81
2023/12/27 09:15:06;;;;;;;12.48;5.13;;;3.40;99.90;;;;;;5053359;28;20103;-81
2023/12/27 09:17:31;;;;;;;11.45;5.28;;;3.40;99.90;;;;;;5047817;28;20038;-81
2023/12/27 09:19:57;;;;;;;14.90;4.85;;;3.40;99.90;;;;;;5050934;28;20091;-81
2023/12/27 09:22:22;;;;;;;11.50;5.70;;;3.40;99.90;;;;;;5046762;28;20073;-82
2023/12/27 09:24:48;;;;;;;13.38;5.03;;;3.50;99.90;;;;;;5046919;28;20416;-82
2023/12/27 09:27:17;;;;;;;11.35;5.07;;;3.50;99.90;;;;;;5046555;28;20582;-82
2023/12/27 09:29:44;;;;;;;12.05;5.72;;;3.50;99.90;;;;;;5046417;28;20081;-82
2023/12/27 09:32:09;;;;;;;16.05;5.72;;;3.50;99.90;;;;;;5048858;28;20555;-82
2023/12/27 09:34:35;;;;;;;14.95;4.90;;;3.50;99.90;;;;;;5048269;28;20052;-82
2023/12/27 09:37:03;;;;;;;12.68;4.90;;;3.50;99.90;;;;;;5049421;28;20045;-82
2023/12/27 09:39:29;;;;;;;10.77;4.82;;;3.60;99.90;;;;;;5048606;28;20041;-81
2023/12/27 09:41:55;;;;;;;11.73;5.07;;;3.60;99.90;;;;;;5040425;28;20127;-82
2023/12/27 09:44:20;;;;;;;11.52;5.00;;;3.60;99.90;;;;;;5050834;28;20132;-82
2023/12/27 09:46:47;;;;;;;11.35;4.40;;;3.60;99.90;;;;;;5044695;28;20029;-82
2023/12/27 09:49:13;;;;;;;15.75;4.78;;;3.60;99.90;;;;;;5048055;28;20051;-81
2023/12/27 09:51:39;;;;;;;14.10;4.80;;;3.60;99.90;;;;;;5050328;28;20037;-82
2023/12/27 09:54:05;;;;;;;11.73;4.10;;;3.70;99.90;;;;;;5051826;28;20044;-82
2023/12/27 09:56:31;;;;;;;12.25;4.00;;;3.70;99.90;;;;;;5049819;28;20520;-81
2023/12/27 09:59:05;;;;;;;10.73;4.00;;;4.50;99.90;;;;;;5049600;28;20135;-82
2023/12/27 10:01:45;;;;;;;10.43;4.20;;;3.80;99.90;;;;;;5050877;28;20049;-82
2023/12/27 10:04:25;;;;;;;10.23;4.18;;;3.80;99.90;;;;;;5069582;28;20472;-82
2023/12/27 10:06:52;;;;;;;13.25;4.25;;;3.80;99.90;;;;;;5042099;28;20506;-81
2023/12/27 10:09:18;;;;;;;10.23;4.18;;;3.80;99.90;;;;;;5050038;28;20534;-82
2023/12/27 10:11:44;;;;;;;12.77;4.30;;;3.90;99.90;;;;;;5047180;28;20041;-82
2023/12/27 10:14:12;;;;;;;12.50;4.68;;;3.90;99.90;;;;;;5050857;28;20400;-82
2023/12/27 10:16:38;;;;;;;13.88;4.95;;;3.90;99.90;;;;;;5050636;28;20037;-82
2023/12/27 10:19:04;;;;;;;12.32;5.07;;;4.00;99.90;;;;;;5044375;28;20409;-81
2023/12/27 10:21:43;;;;;;;15.07;5.20;;;4.00;99.90;;;;;;5050224;28;20107;-80
2023/12/27 10:24:10;;;;;;;13.45;5.22;;;4.00;99.90;;;;;;5052009;28;20048;-81
2023/12/27 10:26:36;;;;;;;13.48;5.00;;;4.10;99.90;;;;;;5049857;28;20325;-82
2023/12/27 10:29:03;;;;;;;9.43;5.15;;;4.10;99.90;;;;;;5057479;28;20504;-81
2023/12/27 10:31:28;;;;;;;9.70;4.95;;;4.20;99.90;;;;;;5051647;28;20048;-80
2023/12/27 10:33:55;;;;;;;15.35;5.97;;;4.20;99.90;;;;;;5050970;28;20044;-81
2023/12/27 10:36:21;;;;;;;11.68;5.88;;;4.20;99.90;;;;;;5050977;28;20044;-81
2023/12/27 10:38:46;;;;;;;12.80;5.53;;;4.30;99.90;;;;;;5049998;28;20040;-81
2023/12/27 10:41:12;;;;;;;12.20;5.50;;;4.30;99.90;;;;;;5050020;28;20044;-81
2023/12/27 10:43:38;;;;;;;15.20;6.15;;;4.30;99.90;;;;;;5049001;28;20548;-81
2023/12/27 10:46:08;;;;;;;10.82;5.70;;;4.30;99.90;;;;;;5056328;28;20409;-81
2023/12/27 10:48:35;;;;;;;15.85;6.20;;;4.30;99.90;;;;;;5050056;28;20086;-81
2023/12/27 10:51:00;;;;;;;14.68;5.55;;;4.30;99.90;;;;;;5054911;28;20110;-81
2023/12/27 10:53:30;;;;;;;18.88;6.40;;;4.40;99.90;;;;;;5066261;28;20037;-81
2023/12/27 10:55:59;;;;;;;10.93;6.05;;;4.40;99.90;;;;;;5053652;28;20134;-81
2023/12/27 10:58:26;;;;;;;13.10;5.97;;;4.40;99.90;;;;;;5052436;28;20048;-81
2023/12/27 11:00:53;;;;;;;15.57;6.32;;;5.00;99.90;;;;;;5054952;28;20036;-80
2023/12/27 11:03:20;;;;;;;14.30;5.82;;;4.40;99.90;;;;;;5051438;28;20033;-80
2023/12/27 11:05:46;;;;;;;16.65;6.97;;;4.40;99.90;;;;;;5052287;28;20037;-80
2023/12/27 11:08:13;;;;;;;14.98;6.32;;;4.40;99.90;;;;;;5051304;28;20055;-83
2023/12/27 11:10:40;;;;;;;14.82;6.00;;;4.50;99.90;;;;;;5044795;28;20431;-81
2023/12/27 11:13:09;;;;;;;15.43;6.47;;;4.50;99.90;;;;;;5050294;28;20045;-81
2023/12/27 11:15:39;;;;;;;16.52;6.93;;;4.50;99.90;;;;;;5051981;28;20039;-81
2023/12/27 11:18:08;;;;;;;16.00;6.03;;;5.00;99.90;;;;;;5050865;28;20579;-81
2023/12/27 11:20:35;;;;;;;20.58;6.25;;;4.50;99.90;;;;;;5050676;28;20044;-80
2023/12/27 11:23:03;;;;;;;14.80;6.18;;;4.50;99.90;;;;;;5049725;28;20154;-81
2023/12/27 11:25:29;;;;;;;14.32;6.65;;;4.50;99.90;;;;;;5050175;28;20122;-81
2023/12/27 11:27:55;;;;;;;13.60;6.15;;;4.50;99.90;;;;;;5056346;28;20060;-80
2023/12/27 11:30:25;;;;;;;17.02;6.65;;;4.60;99.90;;;;;;5048425;28;20053;-80
2023/12/27 11:32:52;;;;;;;13.90;6.18;;;4.60;99.90;;;;;;5050831;28;20029;-81
2023/12/27 11:35:25;;;;;;;13.35;6.88;;;5.50;99.90;;;;;;5048400;28;20049;-81
2023/12/27 11:37:52;;;;;;;14.02;7.13;;;4.60;99.90;;;;;;5046900;28;20037;-81
2023/12/27 11:40:34;;;;;;;13.38;6.97;;;5.60;99.90;;;;;;5049614;28;20120;-81
2023/12/27 11:43:03;;;;;;;14.00;6.70;;;5.00;99.90;;;;;;5053305;28;20153;-81
2023/12/27 11:45:56;;;;;;;16.13;6.63;;;4.70;99.90;;;;;;5051294;28;20049;-81
2023/12/27 11:48:21;;;;;;;15.02;7.40;;;4.70;99.90;;;;;;5043094;28;20094;-82
2023/12/27 11:50:47;;;;;;;19.05;7.97;;;4.70;99.90;;;;;;5054293;28;20868;-81
2023/12/27 11:53:14;;;;;;;15.02;6.95;;;5.40;99.90;;;;;;5053197;28;20517;-81
2023/12/27 11:55:41;;;;;;;18.40;7.55;;;4.70;99.90;;;;;;5052881;28;20037;-80
2023/12/27 11:58:08;;;;;;;17.58;7.82;;;4.70;99.90;;;;;;5054147;28;20072;-82
2023/12/27 12:00:35;;;;;;;20.77;7.70;;;4.70;99.90;;;;;;5054560;28;20045;-82
2023/12/27 12:03:07;;;;;;;17.23;7.20;;;5.50;99.90;;;;;;5052992;28;20080;-81
2023/12/27 12:05:57;;;;;;;20.20;7.80;;;4.70;99.90;;;;;;5053170;28;20090;-81
2023/12/27 12:08:34;;;;;;;14.95;7.45;;;4.80;99.90;;;;;;5052838;28;20049;-82
2023/12/27 12:11:12;;;;;;;20.45;8.45;;;4.70;99.90;;;;;;5050121;28;20079;-81
2023/12/27 12:13:39;;;;;;;15.88;7.90;;;4.70;99.90;;;;;;5053756;28;20430;-81
2023/12/27 12:16:06;;;;;;;18.80;7.57;;;4.70;99.90;;;;;;5052973;28;20048;-80
2023/12/27 12:18:34;;;;;;;19.88;7.80;;;4.70;99.90;;;;;;5053943;28;20063;-82
2023/12/27 12:21:00;;;;;;;19.10;8.38;;;4.70;99.90;;;;;;5054055;28;20040;-81
2023/12/27 12:23:32;;;;;;;15.05;7.63;;;4.70;99.90;;;;;;5049773;28;20045;-82
2023/12/27 12:26:01;;;;;;;17.10;8.57;;;4.70;99.90;;;;;;5052019;28;20044;-81
2023/12/27 12:28:28;;;;;;;15.82;8.23;;;4.70;99.90;;;;;;5053805;28;20048;-82
2023/12/27 12:30:57;;;;;;;18.00;9.07;;;5.50;99.90;;;;;;5052322;28;20119;-82
2023/12/27 12:33:24;;;;;;;15.70;8.07;;;5.50;99.90;;;;;;5039391;28;20037;-81
2023/12/27 12:35:51;;;;;;;14.80;8.20;;;4.80;99.90;;;;;;5040289;28;20052;-81
2023/12/27 12:38:19;;;;;;;17.48;8.57;;;4.80;99.90;;;;;;5047959;28;20099;-81
2023/12/27 12:40:45;;;;;;;17.13;9.25;;;4.80;99.90;;;;;;5051187;28;20129;-81
2023/12/27 12:43:13;;;;;;;18.25;8.45;;;4.90;99.90;;;;;;5049916;28;20045;-81
2023/12/27 12:45:39;;;;;;;18.05;8.93;;;5.60;99.90;;;;;;5051822;28;20087;-81
2023/12/27 12:48:05;;;;;;;15.70;9.50;;;4.90;99.90;;;;;;5051957;28;20057;-82